Airfield :
LOGIN :

Register | Disclaimer

   EN    FR    IT 

 










Legend :    VFR   Marginal VFR   IFR   Intensive IFR   Very Intensive IFR
Visi :
Ceiling :
>= 8 km
>= 3000ft
5 to 8 km
1000 to 3000 ft
1500m to 5 km
500 to 1000 ft
800 to 1500m
200 to 500 ft
< 800m
< 200 ft
Symbols :   Thunderstorms  Fog  Heavy snow  Heavy precipitations  Wind > 20 kt
SIGMETs :     Misc.  Thunderstorms  Icing  Turbulence  Mountain Waves  Volcanic Ashes







- Airport Elevation : 74 ft
- IATA code : EIN


EHEH - Eindhoven

CURRENT METAR :
  • 190255Z AUTO 17003KT 9000 BR OVC130 M02/M04 Q1021 BLU

EXPIRED METARs :
  • 190225Z AUTO 16004KT 9000 BR OVC210 M03/M04 Q1022 BLU
  • 190155Z AUTO 15005KT 9999 OVC210 M02/M04 Q1022 BLU
  • 190125Z AUTO 18003KT 9999 OVC220 M02/M03 Q1022 BLU
  • 190055Z AUTO 18002KT 9000 BR OVC230 M02/M03 Q1022 BLU

TAF TAF EHEH
Valid from the 19 at 00:00 until the 20 at 06:00 UTC


182327Z 1900/2006 18003KT CAVOK
PROB40
TEMPO 1900/1908 3000 MIFG
BECMG 1918/1921 09003KT
No reported NOTAMs for that airfield.



MET'MAP, your aeronautical weather chart ! - Copyright ORBIFLY December 2007 - Disclaimer

ORBIFLY MET'MAP TEAM :

Programming & Development : Alexandra Zaïnal
Concept & Development : Baudouin d'Aumeries
Co-Development & Prog : Marc-Olivier Méhu
Technical & hardware support : Manuel Goepfert

Contact : metmap@orbifly.com




SOURCES & CREDITS :

   NOAA